This demonstration page uses our WeatherBlox Daily Observations layout. Learn more.

36.19886, -115.1175

Hourly Observations for December 5, 2019

Temp ( °F °C ) Dew Point ( °F °C ) Humidity (%) Winds ( mph kmh ) Pressure ( in mb ) Visibility ( mi km ) Precip ( " mm )
12:53 am 00:53 Clear N/A N/A N/A NW 6 9 N/A 10 16.0934 0 0
1:53 am 01:53 Mostly Clear N/A N/A N/A WNW 6 9 N/A 10 16.0934 0 0
2:53 am 02:53 Cloudy N/A N/A N/A Calm N/A 10 16.0934 0 0
3:53 am 03:53 Partly Cloudy N/A N/A N/A WNW 6 9 N/A 10 16.0934 0 0
4:53 am 04:53 Clear N/A N/A N/A WNW 10 17 N/A 10 16.0934 0 0
5:53 am 05:53 Clear N/A N/A N/A WNW 10 17 N/A 10 16.0934 0 0
6:53 am 06:53 Sunny N/A N/A N/A Calm N/A 10 16.0934 0 0
7:53 am 07:53 Sunny 50 10 43 6.1 77 77 WNW 14 22 30.16 1021 10 16.0934 0 0
8:53 am 08:53 Sunny 50 10 43 6.1 77 77 W 15 24 30.19 1022 10 16.0934 0 0
9:53 am 09:53 Sunny 55 12.8 45 7.2 69 69 N 13 20 30.14 1021 10 16.0934 0 0
10:53 am 10:53 Sunny 56 13.3 44 6.7 65 65 NNE 3 6 30.14 1021 10 16.0934 0 0
11:53 am 11:53 Sunny 59 15 42 5.6 54 54 N 5 7 30.1 1019 10 16.0934 0 0
12:53 pm 12:53 Sunny 60 15.6 42 5.6 52 52 NE 8 13 30.08 1019 10 16.0934 0 0
1:53 pm 13:53 Sunny 60 15.6 42 5.6 52 52 E 6 9 30.08 1019 10 16.0934 0 0
2:53 pm 14:53 Sunny 59 15 45 7.2 60 60 E 9 15 30.09 1019 10 16.0934 0 0
3:53 pm 15:53 Sunny 56 13.3 45 7.2 67 67 E 10 17 30.13 1020 10 16.0934 0 0
4:53 pm 16:53 Clear 55 12.8 45 7.2 69 69 E 7 11 30.14 1021 10 16.0934 0 0
5:53 pm 17:53 Clear 54 12.2 45 7.2 72 72 Calm 30.17 1022 10 16.0934 0 0
6:53 pm 18:53 Clear 54 12.2 44 6.7 69 69 W 3 6 30.18 1022 10 16.0934 0 0
7:53 pm 19:53 Clear 54 12.2 44 6.7 69 69 SSW 3 6 30.27 1025 10 16.0934 0 0
8:53 pm 20:53 Clear 52 11.1 45 7.2 77 77 Calm 30.27 1025 10 16.0934 0 0
9:53 pm 21:53 Clear 52 11.1 44 6.7 75 75 SSW 5 7 30.26 1025 10 16.0934 0 0
10:53 pm 22:53 Clear 52 11.1 44 6.7 75 75 SSW 3 6 30.27 1025 10 16.0934 0 0
11:53 pm 23:53 Clear 51 10.6 44 6.7 77 77 WSW 3 6 30.25 1025 10 16.0934 0 0

Powered by AerisWeather